Time;durP1;ratioP1;P1;durP2;ratioP2;P2;SDS_P1;SDS_P2;PMS_P1;PMS_P2;Temp;Humidity;BMP_temperature;BMP_pressure;BME280_temperature;BME280_humidity;BME280_pressure;Samples;Min_cycle;Max_cycle;Signal;HPM_P1;HPM_P2
2021/10/07 00:00:57;;;;;;;20.57;13.67;;;12.30;98.90;;;;;;5031099;28;20476;-73
2021/10/07 00:03:23;;;;;;;22.77;11.47;;;12.30;98.80;;;;;;5031862;28;20607;-72
2021/10/07 00:05:49;;;;;;;18.80;11.83;;;12.40;98.80;;;;;;5031623;28;20460;-74
2021/10/07 00:08:15;;;;;;;19.60;13.40;;;12.40;98.80;;;;;;5030258;28;20640;-74
2021/10/07 00:10:40;;;;;;;19.70;12.87;;;12.40;98.80;;;;;;5031383;28;20253;-74
2021/10/07 00:13:06;;;;;;;19.77;12.53;;;12.40;98.70;;;;;;5030491;28;20174;-73
2021/10/07 00:15:32;;;;;;;29.20;13.90;;;12.40;98.70;;;;;;5030241;28;20174;-74
2021/10/07 00:17:58;;;;;;;28.20;12.50;;;12.40;98.70;;;;;;5031079;28;20679;-72
2021/10/07 00:20:24;;;;;;;20.60;12.47;;;12.40;98.70;;;;;;5029558;28;20194;-71
2021/10/07 00:22:50;;;;;;;26.80;13.13;;;12.50;98.80;;;;;;5031552;28;20202;-72
2021/10/07 00:25:15;;;;;;;18.43;12.40;;;12.50;98.80;;;;;;5031394;28;20489;-73
2021/10/07 00:27:42;;;;;;;21.27;12.57;;;12.50;98.80;;;;;;5031237;28;20965;-74
2021/10/07 00:30:18;;;;;;;21.67;13.03;;;12.50;98.80;;;;;;5029592;28;20230;-73
2021/10/07 00:35:41;;;;;;;19.80;12.00;;;12.50;98.80;;;;;;5031338;28;20580;-72
2021/10/07 00:40:51;;;;;;;20.43;13.93;;;12.50;98.70;;;;;;5030370;28;20485;-74
2021/10/07 00:43:17;;;;;;;19.13;13.50;;;12.50;98.70;;;;;;5036043;28;20440;-73
2021/10/07 00:45:50;;;;;;;22.37;12.37;;;12.50;98.70;;;;;;5040492;28;20206;-73
2021/10/07 00:48:15;;;;;;;27.90;14.17;;;12.50;98.80;;;;;;5041393;28;20582;-74
2021/10/07 00:50:41;;;;;;;20.60;13.17;;;12.50;98.80;;;;;;5049863;28;20453;-74
2021/10/07 00:53:07;;;;;;;20.77;13.37;;;12.50;98.80;;;;;;5023912;28;20174;-72
2021/10/07 00:55:32;;;;;;;22.03;14.97;;;12.60;98.80;;;;;;5015676;28;20177;-73
2021/10/07 00:57:58;;;;;;;26.30;15.30;;;12.60;98.80;;;;;;5014250;28;20546;-74
2021/10/07 01:00:24;;;;;;;26.03;15.90;;;12.60;98.80;;;;;;5032633;28;20279;-72
2021/10/07 01:02:50;;;;;;;23.87;14.10;;;12.60;98.80;;;;;;5035136;28;20220;-73
2021/10/07 01:05:15;;;;;;;33.67;15.50;;;12.60;98.90;;;;;;5034809;28;20194;-73
2021/10/07 01:07:41;;;;;;;24.27;15.60;;;12.60;98.90;;;;;;5034804;28;20596;-76
2021/10/07 01:10:07;;;;;;;21.87;14.67;;;12.60;98.80;;;;;;5034029;28;20360;-74
2021/10/07 01:12:32;;;;;;;23.63;15.77;;;12.60;98.80;;;;;;5035098;28;20269;-74
2021/10/07 01:14:58;;;;;;;20.83;13.77;;;12.60;98.80;;;;;;5034424;28;20488;-73
2021/10/07 01:17:29;;;;;;;24.00;15.87;;;12.60;98.90;;;;;;5034689;28;20174;-72
2021/10/07 01:19:56;;;;;;;26.87;14.50;;;12.60;98.90;;;;;;5033662;28;20244;-73
2021/10/07 01:22:23;;;;;;;23.70;14.67;;;12.60;98.80;;;;;;5050183;28;20451;-73
2021/10/07 01:24:51;;;;;;;33.03;15.17;;;12.60;98.90;;;;;;5034375;28;20491;-73
2021/10/07 01:27:19;;;;;;;18.93;12.77;;;12.60;98.90;;;;;;5034429;28;20401;-73
2021/10/07 01:29:55;;;;;;;22.07;14.93;;;12.60;98.90;;;;;;5033891;28;20484;-73
2021/10/07 01:32:20;;;;;;;19.77;14.73;;;12.60;98.90;;;;;;5034491;28;20773;-73
2021/10/07 01:34:46;;;;;;;27.00;14.43;;;12.60;98.90;;;;;;5034643;28;20416;-73
2021/10/07 01:37:12;;;;;;;21.87;13.67;;;12.60;98.90;;;;;;5034145;28;20429;-73
2021/10/07 01:39:37;;;;;;;22.70;13.47;;;12.60;99.00;;;;;;5034181;28;20170;-73
2021/10/07 01:42:03;;;;;;;24.23;14.60;;;12.60;99.00;;;;;;5034620;28;20186;-74
2021/10/07 01:44:29;;;;;;;26.10;15.20;;;12.60;99.00;;;;;;5034243;28;20210;-73
2021/10/07 01:46:55;;;;;;;21.77;13.80;;;12.60;99.00;;;;;;5034014;28;20171;-72
2021/10/07 01:49:21;;;;;;;22.30;14.23;;;12.60;99.00;;;;;;5034042;28;20163;-73
2021/10/07 01:51:47;;;;;;;22.00;13.60;;;12.60;99.00;;;;;;5033380;28;20205;-74
2021/10/07 01:54:13;;;;;;;21.07;13.33;;;12.60;99.00;;;;;;5033561;28;20934;-74
2021/10/07 01:56:39;;;;;;;30.00;14.07;;;12.60;99.00;;;;;;5033637;28;20423;-73
2021/10/07 01:59:05;;;;;;;21.97;14.00;;;12.60;99.00;;;;;;5033326;28;20228;-73
2021/10/07 02:01:32;;;;;;;25.97;14.40;;;12.60;99.10;;;;;;5031941;28;20186;-74
2021/10/07 02:03:58;;;;;;;22.83;14.13;;;12.60;99.10;;;;;;5033768;28;20413;-74
2021/10/07 02:06:23;;;;;;;20.97;14.23;;;12.60;99.10;;;;;;5033842;28;20979;-74
2021/10/07 02:08:49;;;;;;;32.77;15.47;;;12.70;99.20;;;;;;5033377;28;20212;-73
2021/10/07 02:11:15;;;;;;;20.50;14.00;;;12.60;99.20;;;;;;5032914;28;20198;-73
2021/10/07 02:13:40;;;;;;;22.70;14.17;;;12.60;99.20;;;;;;5033780;28;20254;-73
2021/10/07 02:16:06;;;;;;;39.53;15.67;;;12.60;99.20;;;;;;5033728;28;20531;-74
2021/10/07 02:18:32;;;;;;;28.90;14.40;;;12.60;99.30;;;;;;5033221;28;20249;-73
2021/10/07 02:20:57;;;;;;;28.23;15.43;;;12.60;99.30;;;;;;5032762;28;20516;-72
2021/10/07 02:23:23;;;;;;;24.60;14.10;;;12.60;99.40;;;;;;5030803;28;20162;-73
2021/10/07 02:25:49;;;;;;;22.63;13.50;;;12.60;99.40;;;;;;5032083;28;20205;-73
2021/10/07 02:28:14;;;;;;;26.57;14.90;;;12.60;99.40;;;;;;5033277;28;20659;-73
2021/10/07 02:30:41;;;;;;;32.07;17.77;;;12.60;99.40;;;;;;5032600;28;20229;-73
2021/10/07 02:33:09;;;;;;;25.20;16.10;;;12.60;99.50;;;;;;5033039;28;20163;-72
2021/10/07 02:35:34;;;;;;;29.63;15.00;;;12.60;99.50;;;;;;5033093;28;20424;-75
2021/10/07 02:38:01;;;;;;;25.87;16.10;;;12.60;99.50;;;;;;5031662;28;20433;-73
2021/10/07 02:40:29;;;;;;;24.43;14.63;;;12.60;99.60;;;;;;5031476;28;20192;-72
2021/10/07 02:42:55;;;;;;;32.17;15.40;;;12.50;99.50;;;;;;5033371;28;20409;-73
2021/10/07 02:45:22;;;;;;;31.67;16.73;;;12.50;99.50;;;;;;5032855;28;20445;-72
2021/10/07 02:47:48;;;;;;;28.33;16.27;;;12.50;99.50;;;;;;5032612;28;20170;-72
2021/10/07 02:50:15;;;;;;;34.83;19.37;;;12.40;99.60;;;;;;5032035;28;20447;-72
2021/10/07 02:52:41;;;;;;;30.20;16.10;;;12.40;99.70;;;;;;5032605;28;20405;-72
2021/10/07 02:55:07;;;;;;;26.87;15.73;;;12.30;99.80;;;;;;5032662;28;20417;-72
2021/10/07 02:57:33;;;;;;;28.50;16.33;;;12.30;99.80;;;;;;5033168;28;20428;-73
2021/10/07 02:59:59;;;;;;;30.27;16.50;;;12.20;99.90;;;;;;5032082;28;20490;-73
2021/10/07 03:02:24;;;;;;;34.90;17.60;;;12.20;99.90;;;;;;5035822;28;20190;-73
2021/10/07 03:04:52;;;;;;;28.07;15.77;;;12.20;99.90;;;;;;5032509;28;20659;-73
2021/10/07 03:07:19;;;;;;;26.80;15.60;;;12.20;99.90;;;;;;5031214;28;20170;-72
2021/10/07 03:09:45;;;;;;;29.10;15.90;;;12.10;99.90;;;;;;5046243;28;20405;-73
2021/10/07 03:12:11;;;;;;;33.00;15.70;;;12.10;99.90;;;;;;5031830;28;20496;-73
2021/10/07 03:14:39;;;;;;;33.63;16.80;;;12.00;99.90;;;;;;5032104;28;20429;-73
2021/10/07 03:17:06;;;;;;;32.67;17.73;;;12.00;99.90;;;;;;5032233;28;20216;-73
2021/10/07 03:19:32;;;;;;;34.33;18.83;;;12.00;99.90;;;;;;5032256;28;20863;-73
2021/10/07 03:21:57;;;;;;;39.03;17.67;;;12.00;99.90;;;;;;5030522;28;20436;-73
2021/10/07 03:24:23;;;;;;;28.83;18.67;;;12.00;99.90;;;;;;5031816;28;20672;-72
2021/10/07 03:26:49;;;;;;;35.60;18.50;;;12.00;99.90;;;;;;5032181;28;20162;-73
2021/10/07 03:29:15;;;;;;;39.57;20.27;;;12.00;99.90;;;;;;5031999;28;20194;-73
2021/10/07 03:31:40;;;;;;;33.60;17.67;;;12.00;99.90;;;;;;5031308;28;20183;-73
2021/10/07 03:34:06;;;;;;;36.47;20.93;;;11.90;99.90;;;;;;5031564;28;20159;-73
2021/10/07 03:36:31;;;;;;;34.80;17.23;;;11.90;99.90;;;;;;5031804;28;20159;-73
2021/10/07 03:38:57;;;;;;;31.53;18.80;;;11.90;99.90;;;;;;5031870;28;20516;-73
2021/10/07 03:41:23;;;;;;;45.73;19.00;;;11.90;99.90;;;;;;5031378;28;20197;-73
2021/10/07 03:43:49;;;;;;;40.77;20.23;;;11.90;99.90;;;;;;5031896;28;20181;-73
2021/10/07 03:46:16;;;;;;;36.33;19.30;;;11.90;99.90;;;;;;5031157;28;20576;-73
2021/10/07 03:48:43;;;;;;;38.77;19.33;;;11.90;99.90;;;;;;5031532;28;20895;-73
2021/10/07 03:51:08;;;;;;;41.53;19.57;;;12.00;99.90;;;;;;5029321;28;20776;-73
2021/10/07 03:53:34;;;;;;;41.90;20.70;;;12.00;99.90;;;;;;5031289;28;20408;-73
2021/10/07 03:56:00;;;;;;;43.60;20.00;;;12.00;99.90;;;;;;5031657;28;20178;-73
2021/10/07 03:58:26;;;;;;;39.13;20.53;;;12.10;99.90;;;;;;5030364;28;20639;-73
2021/10/07 04:00:51;;;;;;;43.43;20.10;;;12.10;99.90;;;;;;5030637;28;20460;-74
2021/10/07 04:03:17;;;;;;;46.07;21.37;;;12.10;99.90;;;;;;5041502;28;20530;-73
2021/10/07 04:05:43;;;;;;;34.10;19.77;;;12.20;99.90;;;;;;5011585;28;20194;-73
2021/10/07 04:08:08;;;;;;;41.37;19.53;;;12.20;99.90;;;;;;5020223;28;20169;-73
2021/10/07 04:10:35;;;;;;;47.03;19.10;;;12.20;99.90;;;;;;5030478;28;20204;-73
2021/10/07 04:13:00;;;;;;;41.33;19.87;;;12.20;99.90;;;;;;5031253;28;20224;-74
2021/10/07 04:15:26;;;;;;;36.70;19.47;;;12.20;99.90;;;;;;5030174;28;20421;-72
2021/10/07 04:17:52;;;;;;;42.87;19.07;;;12.20;99.90;;;;;;5030930;28;20174;-74
2021/10/07 04:20:17;;;;;;;44.70;19.50;;;12.20;99.90;;;;;;5030622;28;20706;-74
2021/10/07 04:22:43;;;;;;;45.30;19.70;;;12.20;99.90;;;;;;5031025;28;20181;-73
2021/10/07 04:25:09;;;;;;;45.77;20.20;;;12.20;99.90;;;;;;5030299;28;20197;-73
2021/10/07 04:27:35;;;;;;;38.50;21.73;;;12.20;99.90;;;;;;5030976;28;20265;-73
2021/10/07 04:30:04;;;;;;;41.10;18.40;;;12.20;99.90;;;;;;5029784;28;20859;-73
2021/10/07 04:32:30;;;;;;;38.57;17.47;;;12.20;99.90;;;;;;5031200;28;20409;-72
2021/10/07 04:34:55;;;;;;;40.10;20.07;;;12.20;99.90;;;;;;5029277;28;20433;-73
2021/10/07 04:37:21;;;;;;;54.97;20.43;;;12.20;99.90;;;;;;5031096;28;20261;-73
2021/10/07 04:39:47;;;;;;;35.53;19.87;;;12.20;99.90;;;;;;5032997;28;20629;-74
2021/10/07 04:42:12;;;;;;;40.83;20.40;;;12.10;99.90;;;;;;5035233;28;20197;-74
2021/10/07 04:44:38;;;;;;;37.10;18.23;;;12.10;99.90;;;;;;5052362;28;20221;-73
2021/10/07 04:47:04;;;;;;;36.67;19.17;;;12.00;99.90;;;;;;5055181;28;20243;-74
2021/10/07 04:49:29;;;;;;;38.83;18.13;;;11.90;99.90;;;;;;5011818;28;20179;-74
2021/10/07 04:51:55;;;;;;;37.20;19.27;;;11.90;99.90;;;;;;5017307;28;20226;-74
2021/10/07 04:54:21;;;;;;;42.80;18.53;;;11.80;99.90;;;;;;5029379;28;20540;-73
2021/10/07 04:56:46;;;;;;;39.13;19.67;;;11.80;99.90;;;;;;5028306;28;20201;-74
2021/10/07 04:59:12;;;;;;;41.87;19.20;;;11.80;99.90;;;;;;5030470;28;20170;-74
2021/10/07 05:01:37;;;;;;;43.37;19.50;;;11.80;99.90;;;;;;5025525;28;20225;-74
2021/10/07 05:04:03;;;;;;;39.00;17.87;;;11.70;99.90;;;;;;5030311;28;20203;-74
2021/10/07 05:06:30;;;;;;;56.60;22.13;;;11.70;99.90;;;;;;5029961;28;20733;-74
2021/10/07 05:08:56;;;;;;;37.37;16.73;;;11.80;99.90;;;;;;5029467;28;20332;-74
2021/10/07 05:11:22;;;;;;;47.87;19.30;;;11.80;99.90;;;;;;5028605;28;20448;-74
2021/10/07 05:13:48;;;;;;;45.90;21.03;;;11.80;99.90;;;;;;5029239;28;20500;-72
2021/10/07 05:16:13;;;;;;;48.90;20.03;;;11.80;99.90;;;;;;5030189;28;20429;-73
2021/10/07 05:18:39;;;;;;;50.63;21.43;;;11.80;99.90;;;;;;5030354;28;20189;-73
2021/10/07 05:21:05;;;;;;;38.60;18.97;;;11.80;99.90;;;;;;5029311;28;20224;-72
2021/10/07 05:23:31;;;;;;;50.17;20.27;;;11.70;99.90;;;;;;5029516;28;20189;-72
2021/10/07 05:25:56;;;;;;;43.40;21.47;;;11.70;99.90;;;;;;5029069;28;20285;-73
2021/10/07 05:28:22;;;;;;;51.93;21.60;;;11.70;99.90;;;;;;5030142;28;20532;-73
2021/10/07 05:30:49;;;;;;;49.70;20.70;;;11.70;99.90;;;;;;5030016;28;20260;-74
2021/10/07 05:33:15;;;;;;;45.43;20.20;;;11.80;99.90;;;;;;5047835;28;20701;-73
2021/10/07 05:35:41;;;;;;;52.70;20.70;;;11.80;99.90;;;;;;5034095;28;20520;-73
2021/10/07 05:38:07;;;;;;;50.50;21.43;;;11.80;99.90;;;;;;5034765;28;20405;-76
2021/10/07 05:40:35;;;;;;;43.30;20.77;;;11.70;99.90;;;;;;5032768;28;20193;-76
2021/10/07 05:43:04;;;;;;;43.60;20.73;;;11.70;99.90;;;;;;5034197;28;20409;-77
2021/10/07 05:45:29;;;;;;;45.00;22.17;;;11.60;99.90;;;;;;5049524;28;20197;-77
2021/10/07 05:47:55;;;;;;;42.73;20.20;;;11.60;99.90;;;;;;5034586;28;20417;-78
2021/10/07 05:50:21;;;;;;;48.77;21.10;;;11.60;99.90;;;;;;5033779;28;20209;-77
2021/10/07 05:52:46;;;;;;;35.20;18.97;;;11.50;99.90;;;;;;5036428;28;20545;-77
2021/10/07 05:55:12;;;;;;;48.60;21.47;;;11.50;99.90;;;;;;5035110;28;20198;-79
2021/10/07 05:57:38;;;;;;;49.10;20.70;;;11.50;99.90;;;;;;5034863;28;20579;-77
2021/10/07 06:00:06;;;;;;;46.20;19.80;;;11.50;99.90;;;;;;5031756;28;20238;-77
2021/10/07 06:02:38;;;;;;;47.23;19.63;;;11.50;99.90;;;;;;5035127;28;20206;-76
2021/10/07 06:05:05;;;;;;;47.00;21.73;;;11.40;99.90;;;;;;5035071;28;21034;-77
2021/10/07 06:07:31;;;;;;;41.33;20.13;;;11.40;99.90;;;;;;5034505;28;20953;-77
2021/10/07 06:09:57;;;;;;;45.90;19.53;;;11.40;99.90;;;;;;5034986;28;20409;-78
2021/10/07 06:12:22;;;;;;;40.90;19.07;;;11.40;99.90;;;;;;5036561;28;20170;-77
2021/10/07 06:14:48;;;;;;;45.37;20.20;;;11.40;99.90;;;;;;5038358;28;20894;-77
2021/10/07 06:17:14;;;;;;;50.53;20.67;;;11.40;99.90;;;;;;5045127;28;20223;-77
2021/10/07 06:19:42;;;;;;;49.63;18.93;;;11.50;99.90;;;;;;5055477;28;20151;-78
2021/10/07 06:22:08;;;;;;;41.30;18.80;;;11.50;99.90;;;;;;5046639;28;20479;-77
2021/10/07 06:24:34;;;;;;;41.40;19.13;;;11.50;99.90;;;;;;5039166;28;20445;-76
2021/10/07 06:27:00;;;;;;;41.43;18.70;;;11.60;99.90;;;;;;5035019;28;20182;-77
2021/10/07 06:29:27;;;;;;;44.53;18.87;;;11.60;99.90;;;;;;5038877;28;20408;-78
2021/10/07 06:31:53;;;;;;;40.70;18.97;;;11.60;99.90;;;;;;5038247;28;20187;-77
2021/10/07 06:34:19;;;;;;;44.33;18.57;;;11.60;99.90;;;;;;5033209;28;20405;-78
2021/10/07 06:36:44;;;;;;;46.93;20.87;;;11.70;99.90;;;;;;5035820;28;21167;-77
2021/10/07 06:39:10;;;;;;;44.10;23.70;;;11.70;99.90;;;;;;5035512;28;20174;-77
2021/10/07 06:41:36;;;;;;;42.77;18.93;;;11.80;99.90;;;;;;5035515;28;20246;-78
2021/10/07 06:44:02;;;;;;;43.67;22.43;;;11.80;99.90;;;;;;5034060;28;20429;-77
2021/10/07 06:46:29;;;;;;;43.33;19.30;;;11.90;99.90;;;;;;5034304;28;20462;-78
2021/10/07 06:48:55;;;;;;;51.97;22.60;;;11.90;99.90;;;;;;5034499;28;20432;-77
2021/10/07 06:51:22;;;;;;;39.90;21.10;;;12.00;99.90;;;;;;5033065;28;20502;-77
2021/10/07 06:53:52;;;;;;;37.77;18.07;;;12.00;99.90;;;;;;5032198;28;20759;-78
2021/10/07 06:56:19;;;;;;;44.87;20.77;;;12.10;99.90;;;;;;5034593;28;20829;-77
2021/10/07 06:58:44;;;;;;;41.80;20.13;;;12.10;99.90;;;;;;5033770;28;20829;-77
2021/10/07 07:01:10;;;;;;;37.27;19.33;;;12.20;99.90;;;;;;5015505;28;20463;-79
2021/10/07 07:03:36;;;;;;;36.97;19.50;;;12.30;99.90;;;;;;5034411;28;20633;-78
2021/10/07 07:06:01;;;;;;;48.47;22.60;;;12.50;99.90;;;;;;5033952;28;20190;-78
2021/10/07 07:08:27;;;;;;;44.93;21.37;;;12.70;99.90;;;;;;5032276;28;20163;-76
2021/10/07 07:10:54;;;;;;;37.30;20.07;;;12.90;99.90;;;;;;5032884;28;20301;-78
2021/10/07 07:13:19;;;;;;;38.20;20.43;;;13.10;99.90;;;;;;5034815;28;20855;-78
2021/10/07 07:15:45;;;;;;;38.23;17.73;;;13.20;99.90;;;;;;5033786;28;20179;-78
2021/10/07 07:18:10;;;;;;;36.73;19.33;;;13.30;99.90;;;;;;5033977;28;20193;-76
2021/10/07 07:20:36;;;;;;;42.63;18.10;;;13.50;99.70;;;;;;5031882;28;20229;-77
2021/10/07 07:23:09;;;;;;;38.70;20.00;;;13.60;99.70;;;;;;5031969;28;20221;-78
2021/10/07 07:25:35;;;;;;;46.30;20.50;;;13.80;98.90;;;;;;5033110;28;20711;-78
2021/10/07 07:28:00;;;;;;;40.60;18.67;;;14.00;98.40;;;;;;5033633;28;20413;-78
2021/10/07 07:30:26;;;;;;;32.80;19.00;;;14.10;98.20;;;;;;5033918;28;20186;-78
2021/10/07 07:32:52;;;;;;;50.67;20.83;;;14.20;97.20;;;;;;5033148;28;20202;-78
2021/10/07 07:35:17;;;;;;;41.93;20.97;;;14.30;97.10;;;;;;5031930;28;20171;-78
2021/10/07 07:37:43;;;;;;;35.37;20.37;;;14.30;96.50;;;;;;5032998;28;20192;-78
2021/10/07 07:40:09;;;;;;;42.57;21.20;;;14.20;95.90;;;;;;5032436;28;20213;-79
2021/10/07 07:42:35;;;;;;;41.17;20.80;;;14.10;96.70;;;;;;5033011;28;20662;-77
2021/10/07 07:45:01;;;;;;;38.53;21.73;;;14.10;96.20;;;;;;5032804;28;20484;-78
2021/10/07 07:47:26;;;;;;;38.00;20.63;;;14.00;96.60;;;;;;5032738;28;20166;-78
2021/10/07 07:49:52;;;;;;;58.77;29.20;;;14.10;96.70;;;;;;5032668;28;20536;-77
2021/10/07 07:52:18;;;;;;;39.67;22.53;;;14.00;96.50;;;;;;5032704;28;20598;-78
2021/10/07 07:54:43;;;;;;;37.43;20.10;;;14.00;96.30;;;;;;5034502;28;20691;-78
2021/10/07 07:57:09;;;;;;;37.90;20.03;;;13.80;95.90;;;;;;5034878;28;20217;-77
2021/10/07 07:59:35;;;;;;;35.03;19.20;;;13.70;96.20;;;;;;5033611;28;20178;-77
2021/10/07 08:02:00;;;;;;;32.80;18.83;;;13.60;96.20;;;;;;5032762;28;20195;-78
2021/10/07 08:04:26;;;;;;;43.03;19.70;;;13.50;96.90;;;;;;5031520;28;20216;-78
2021/10/07 08:06:52;;;;;;;46.03;20.87;;;13.40;97.00;;;;;;5032799;28;20159;-77
2021/10/07 08:09:17;;;;;;;40.83;20.80;;;13.50;97.50;;;;;;5032679;28;20536;-78
2021/10/07 08:11:43;;;;;;;36.33;19.73;;;13.60;97.90;;;;;;5032365;28;20190;-77
2021/10/07 08:14:10;;;;;;;43.50;20.40;;;13.80;97.50;;;;;;5033251;28;20632;-78
2021/10/07 08:16:36;;;;;;;44.73;22.97;;;14.10;97.30;;;;;;5032005;28;20158;-78
2021/10/07 08:19:02;;;;;;;41.10;21.50;;;14.70;98.30;;;;;;5034253;28;20764;-78
2021/10/07 08:21:27;;;;;;;37.20;19.83;;;16.10;95.80;;;;;;5031184;28;20451;-78
2021/10/07 08:23:54;;;;;;;33.40;21.43;;;17.30;92.30;;;;;;5036167;28;20202;-78
2021/10/07 08:26:20;;;;;;;32.23;18.27;;;18.20;90.70;;;;;;5034296;28;20209;-78
2021/10/07 08:28:46;;;;;;;36.77;19.80;;;19.50;86.10;;;;;;5032804;28;20407;-78
2021/10/07 08:31:12;;;;;;;28.47;18.30;;;21.00;73.90;;;;;;5032865;28;20428;-78
2021/10/07 08:33:39;;;;;;;28.33;18.30;;;21.90;67.80;;;;;;5032689;28;20766;-77
2021/10/07 08:36:05;;;;;;;30.50;19.20;;;21.70;61.30;;;;;;5030761;28;20425;-78
2021/10/07 08:38:32;;;;;;;26.53;19.00;;;21.00;62.20;;;;;;5031884;28;20627;-77
2021/10/07 08:40:58;;;;;;;29.50;18.67;;;20.00;62.00;;;;;;5031977;28;20490;-77
2021/10/07 08:43:25;;;;;;;31.93;18.20;;;19.00;66.90;;;;;;5031267;28;20426;-77
2021/10/07 08:45:52;;;;;;;28.80;19.77;;;18.20;70.60;;;;;;5032359;28;20612;-78
2021/10/07 08:48:18;;;;;;;24.30;15.67;;;17.80;73.20;;;;;;5033143;28;20420;-76
2021/10/07 08:50:44;;;;;;;25.20;16.97;;;17.70;75.60;;;;;;5031459;28;20505;-76
2021/10/07 08:53:09;;;;;;;27.10;17.53;;;17.90;76.20;;;;;;5032501;28;20498;-77
2021/10/07 08:55:35;;;;;;;22.90;16.17;;;19.10;75.30;;;;;;5032379;28;20173;-79
2021/10/07 08:58:01;;;;;;;24.67;16.70;;;20.60;67.10;;;;;;5032461;28;20193;-78
2021/10/07 09:00:27;;;;;;;24.23;15.73;;;20.90;62.20;;;;;;5031141;28;20217;-78
2021/10/07 09:02:52;;;;;;;30.63;16.40;;;20.60;61.10;;;;;;5033069;28;20846;-78
2021/10/07 09:05:24;;;;;;;24.60;16.17;;;20.20;62.00;;;;;;5033567;28;20190;-77
2021/10/07 09:07:58;;;;;;;21.43;16.60;;;20.40;63.00;;;;;;5033435;28;20220;-78
2021/10/07 09:10:44;;;;;;;25.90;16.87;;;21.10;61.10;;;;;;5035538;28;20494;-78
2021/10/07 09:13:14;;;;;;;23.50;15.67;;;21.40;58.80;;;;;;5036781;28;20447;-77
2021/10/07 09:15:46;;;;;;;22.37;14.90;;;21.50;58.80;;;;;;5035802;28;20428;-77
2021/10/07 09:18:12;;;;;;;22.60;15.83;;;21.00;57.00;;;;;;5035884;28;20476;-78
2021/10/07 09:20:41;;;;;;;23.17;14.30;;;20.40;60.00;;;;;;5034735;28;21002;-78
2021/10/07 09:23:16;;;;;;;19.40;14.40;;;21.40;58.70;;;;;;5036925;28;20428;-78
2021/10/07 09:26:02;;;;;;;21.70;15.60;;;22.10;55.40;;;;;;5036433;28;20448;-77
2021/10/07 09:28:47;;;;;;;22.77;14.03;;;21.80;55.50;;;;;;5035929;28;20460;-78
2021/10/07 09:31:13;;;;;;;19.17;14.47;;;22.40;55.30;;;;;;5037160;28;20931;-78
2021/10/07 09:33:41;;;;;;;22.10;14.97;;;23.90;52.70;;;;;;5035940;28;20416;-78
2021/10/07 09:36:16;;;;;;;20.57;14.20;;;25.30;50.30;;;;;;5037101;28;20945;-78
2021/10/07 09:38:43;;;;;;;20.10;14.73;;;26.10;46.70;;;;;;5038806;28;20415;-79
2021/10/07 09:41:15;;;;;;;19.17;14.40;;;26.90;46.30;;;;;;5039363;28;20479;-78
2021/10/07 09:43:55;;;;;;;19.33;15.30;;;27.80;43.30;;;;;;5039486;28;20484;-78
2021/10/07 09:46:39;;;;;;;19.20;14.93;;;28.60;42.20;;;;;;5038555;28;20815;-78
2021/10/07 09:49:10;;;;;;;15.80;13.40;;;28.90;38.10;;;;;;5036267;28;20499;-78
2021/10/07 09:51:47;;;;;;;16.60;14.17;;;28.30;39.40;;;;;;5035223;28;20856;-78
2021/10/07 09:54:17;;;;;;;18.60;16.40;;;27.90;39.40;;;;;;5036607;28;20747;-77
2021/10/07 09:56:58;;;;;;;17.37;15.20;;;27.60;41.20;;;;;;5035507;28;20872;-76
2021/10/07 09:59:25;;;;;;;19.30;15.37;;;28.20;39.10;;;;;;5035577;28;20412;-77
2021/10/07 10:01:54;;;;;;;17.67;14.53;;;28.30;39.00;;;;;;5033558;28;20468;-78
2021/10/07 10:04:20;;;;;;;17.33;13.60;;;28.10;39.30;;;;;;5035636;28;20443;-78
2021/10/07 10:06:46;;;;;;;20.47;16.10;;;26.80;39.30;;;;;;5036246;28;20421;-78
2021/10/07 10:09:12;;;;;;;18.67;15.30;;;24.90;42.60;;;;;;5033655;28;20417;-78
2021/10/07 10:11:40;;;;;;;17.37;13.67;;;24.30;45.40;;;;;;5035090;28;20443;-77
2021/10/07 10:14:07;;;;;;;21.27;14.53;;;24.70;44.70;;;;;;5035746;28;20167;-78
2021/10/07 10:16:36;;;;;;;19.57;14.93;;;25.20;43.40;;;;;;5036024;28;20421;-78
2021/10/07 10:19:03;;;;;;;17.23;12.67;;;24.80;44.10;;;;;;5034761;28;20416;-78
2021/10/07 10:21:34;;;;;;;21.73;13.07;;;24.90;44.30;;;;;;5035850;28;20579;-78
2021/10/07 10:24:03;;;;;;;17.87;13.00;;;25.00;44.40;;;;;;5036797;28;20488;-78
2021/10/07 10:26:29;;;;;;;16.97;12.87;;;25.00;43.70;;;;;;5038525;28;20445;-78
2021/10/07 10:28:56;;;;;;;20.23;13.50;;;24.30;43.90;;;;;;5039545;28;20405;-78
2021/10/07 10:31:38;;;;;;;20.37;12.93;;;23.70;45.50;;;;;;5052342;28;20580;-77
2021/10/07 10:34:13;;;;;;;20.37;14.77;;;23.10;47.00;;;;;;5053218;28;20467;-77
2021/10/07 10:36:38;;;;;;;19.67;12.50;;;22.60;47.60;;;;;;5047776;28;20419;-78
2021/10/07 10:39:15;;;;;;;21.43;13.00;;;21.80;48.40;;;;;;5034547;28;20417;-77
2021/10/07 10:42:07;;;;;;;15.30;11.73;;;21.20;50.20;;;;;;5038464;28;20181;-77
2021/10/07 10:44:49;;;;;;;17.13;11.97;;;20.60;50.90;;;;;;5042584;28;20946;-78
2021/10/07 10:47:16;;;;;;;15.70;11.10;;;20.20;51.70;;;;;;5036150;28;20418;-77
2021/10/07 10:49:50;;;;;;;16.17;11.00;;;19.70;53.00;;;;;;5038270;28;20423;-78
2021/10/07 10:52:31;;;;;;;20.00;12.80;;;19.50;53.60;;;;;;5036470;28;20415;-78
2021/10/07 10:55:11;;;;;;;15.67;10.90;;;19.40;54.10;;;;;;5038368;28;20408;-78
2021/10/07 10:57:52;;;;;;;20.27;12.13;;;19.40;54.10;;;;;;5055720;22;20496;-76
2021/10/07 11:00:29;;;;;;;18.20;11.90;;;19.30;54.30;;;;;;4997329;28;20772;-76
2021/10/07 11:03:19;;;;;;;13.80;10.80;;;19.20;54.50;;;;;;4997484;28;20408;-74
2021/10/07 11:05:53;;;;;;;15.60;10.80;;;18.90;54.60;;;;;;4995252;28;20467;-77
2021/10/07 11:08:21;;;;;;;18.87;10.87;;;18.80;55.10;;;;;;5013997;28;20445;-75
2021/10/07 11:10:58;;;;;;;16.23;10.77;;;18.70;55.50;;;;;;5016198;28;20472;-76
2021/10/07 11:13:33;;;;;;;16.30;10.37;;;18.70;55.80;;;;;;5016150;28;20446;-76
2021/10/07 11:16:02;;;;;;;16.40;12.13;;;18.60;55.60;;;;;;5015895;28;20405;-75
2021/10/07 11:18:35;;;;;;;15.50;9.83;;;18.50;55.60;;;;;;5013931;28;21009;-74
2021/10/07 11:21:06;;;;;;;11.70;9.33;;;18.40;56.10;;;;;;5016158;28;20461;-74
2021/10/07 11:23:33;;;;;;;16.07;11.37;;;18.40;56.70;;;;;;4997051;28;20809;-75
2021/10/07 11:26:00;;;;;;;17.73;10.73;;;18.60;56.30;;;;;;5013910;28;20992;-75
2021/10/07 11:28:30;;;;;;;13.60;10.43;;;18.80;56.40;;;;;;5014579;28;20792;-75
2021/10/07 11:31:06;;;;;;;14.57;9.47;;;18.70;56.00;;;;;;5013938;28;20403;-75
2021/10/07 11:33:32;;;;;;;16.50;10.07;;;18.60;56.10;;;;;;5016757;28;20409;-75
2021/10/07 11:36:01;;;;;;;14.93;10.27;;;18.50;57.10;;;;;;5025998;28;20735;-73
2021/10/07 11:38:28;;;;;;;13.03;9.27;;;18.50;56.50;;;;;;5032591;28;20470;-76
2021/10/07 11:40:54;;;;;;;11.07;8.63;;;18.50;56.30;;;;;;5012684;28;20545;-75
2021/10/07 11:43:24;;;;;;;14.30;9.80;;;18.50;56.30;;;;;;5024187;28;20761;-76
2021/10/07 11:45:55;;;;;;;11.13;8.40;;;18.50;56.60;;;;;;5015519;28;20951;-75
2021/10/07 11:48:22;;;;;;;16.60;9.20;;;18.30;55.50;;;;;;5013190;28;20434;-74
2021/10/07 11:50:53;;;;;;;17.67;9.37;;;18.20;55.90;;;;;;5012628;28;20406;-76
2021/10/07 11:53:33;;;;;;;14.90;8.57;;;18.20;56.90;;;;;;5014077;28;20421;-76
2021/10/07 11:56:02;;;;;;;12.13;8.57;;;18.20;56.50;;;;;;5015975;28;20432;-76
2021/10/07 11:58:29;;;;;;;14.13;8.80;;;18.10;56.60;;;;;;5001477;28;20509;-76
2021/10/07 12:00:56;;;;;;;11.73;7.80;;;18.10;57.30;;;;;;5009606;28;20473;-75
2021/10/07 12:03:29;;;;;;;15.43;9.07;;;18.00;56.80;;;;;;4990392;28;20438;-75
2021/10/07 12:06:04;;;;;;;27.40;10.13;;;17.90;56.80;;;;;;4987736;28;20462;-74
2021/10/07 12:08:32;;;;;;;12.80;7.93;;;17.70;56.60;;;;;;4986431;28;20426;-77
2021/10/07 12:11:05;;;;;;;12.87;8.60;;;17.50;56.80;;;;;;4996163;28;20502;-74
2021/10/07 12:13:35;;;;;;;10.60;7.67;;;17.40;57.00;;;;;;4985193;28;20426;-77
2021/10/07 12:16:04;;;;;;;13.50;9.00;;;17.30;57.20;;;;;;4989960;28;20780;-75
2021/10/07 12:18:33;;;;;;;20.10;12.20;;;17.30;57.90;;;;;;4992074;28;20435;-78
2021/10/07 12:21:03;;;;;;;13.70;9.80;;;17.40;56.90;;;;;;4996880;28;20407;-75
2021/10/07 12:23:31;;;;;;;15.83;8.87;;;17.50;57.30;;;;;;4998305;28;20582;-76
2021/10/07 12:26:02;;;;;;;12.30;6.63;;;17.50;56.90;;;;;;4998896;28;20457;-76
2021/10/07 12:28:30;;;;;;;11.13;7.60;;;17.60;57.30;;;;;;4986922;28;20504;-74
2021/10/07 12:30:59;;;;;;;10.73;7.87;;;17.70;57.10;;;;;;4987311;28;20430;-75
2021/10/07 12:33:27;;;;;;;13.40;8.43;;;17.80;56.60;;;;;;4997117;28;20415;-76
2021/10/07 12:35:54;;;;;;;13.50;8.10;;;17.90;56.60;;;;;;4983930;28;20442;-75